createdAt,value
2023-03-10T00:00:05.900Z,3.63
2023-03-10T00:02:58.445Z,4.50
2023-03-10T00:05:31.143Z,3.40
2023-03-10T00:07:59.658Z,3.13
2023-03-10T00:10:58.765Z,2.53
2023-03-10T00:13:34.826Z,3.40
2023-03-10T00:17:10.562Z,4.00
2023-03-10T00:19:39.120Z,3.63
2023-03-10T00:22:07.655Z,3.40
2023-03-10T00:24:36.169Z,3.60
2023-03-10T00:27:04.769Z,4.10
2023-03-10T00:29:33.255Z,3.50
2023-03-10T00:32:03.951Z,4.00
2023-03-10T00:34:34.063Z,3.60
2023-03-10T00:37:02.855Z,3.10
2023-03-10T00:39:31.374Z,3.13
2023-03-10T00:41:59.920Z,3.57
2023-03-10T00:44:29.461Z,3.30
2023-03-10T00:46:57.971Z,3.40
2023-03-10T00:49:26.444Z,3.80
2023-03-10T00:51:56.454Z,3.70
2023-03-10T00:54:25.306Z,3.30
2023-03-10T00:56:53.897Z,3.20
2023-03-10T00:59:22.982Z,2.87
2023-03-10T01:01:52.530Z,2.73
2023-03-10T01:04:21.102Z,2.37
2023-03-10T01:06:49.942Z,3.00
2023-03-10T01:09:19.993Z,2.70
2023-03-10T01:11:49.163Z,2.67
2023-03-10T01:14:18.928Z,2.67
2023-03-10T01:16:47.515Z,2.30
2023-03-10T01:19:16.274Z,2.60
2023-03-10T01:21:44.939Z,3.10
2023-03-10T01:24:17.259Z,3.17
2023-03-10T01:26:47.842Z,2.90
2023-03-10T01:29:16.743Z,3.30
2023-03-10T01:31:45.317Z,3.27
2023-03-10T01:34:13.941Z,2.80
2023-03-10T01:36:43.789Z,3.10
2023-03-10T01:39:12.542Z,3.17
2023-03-10T01:41:42.930Z,2.93
2023-03-10T01:44:20.019Z,2.70
2023-03-10T01:46:52.159Z,3.10
2023-03-10T01:49:39.070Z,2.43
2023-03-10T01:52:16.260Z,2.47
2023-03-10T01:54:54.526Z,2.80
2023-03-10T01:57:29.442Z,2.77
2023-03-10T02:00:01.177Z,2.30
2023-03-10T02:02:36.314Z,2.57
2023-03-10T02:05:05.428Z,2.13
2023-03-10T02:07:37.211Z,2.13
2023-03-10T02:10:07.446Z,2.20
2023-03-10T02:12:37.813Z,2.67
2023-03-10T02:15:09.309Z,2.23
2023-03-10T02:17:40.037Z,3.80
2023-03-10T02:20:33.582Z,1.93
2023-03-10T02:23:02.767Z,2.47
2023-03-10T02:25:43.257Z,2.60
2023-03-10T02:28:13.340Z,2.50
2023-03-10T02:30:46.643Z,2.57
2023-03-10T02:33:21.167Z,2.70
2023-03-10T02:35:50.055Z,2.30
2023-03-10T02:38:22.998Z,2.73
2023-03-10T02:40:54.768Z,2.50
2023-03-10T02:43:33.005Z,2.37
2023-03-10T02:46:11.978Z,2.60
2023-03-10T02:48:44.337Z,2.10
2023-03-10T02:51:24.482Z,2.30
2023-03-10T02:53:54.750Z,2.70
2023-03-10T02:56:25.015Z,2.50
2023-03-10T02:58:55.320Z,2.10
2023-03-10T03:01:23.968Z,2.50
2023-03-10T03:03:53.036Z,2.30
2023-03-10T03:06:22.532Z,2.63
2023-03-10T03:08:51.605Z,2.40
2023-03-10T03:11:23.209Z,2.40
2023-03-10T03:13:52.266Z,3.13
2023-03-10T03:16:22.787Z,2.63
2023-03-10T03:18:55.635Z,3.00
2023-03-10T03:21:25.718Z,3.00
2023-03-10T03:23:56.059Z,2.43
2023-03-10T03:26:27.932Z,2.30
2023-03-10T03:29:11.934Z,2.20
2023-03-10T03:31:42.648Z,2.20
2023-03-10T03:34:24.356Z,2.47
2023-03-10T03:36:56.110Z,2.50
2023-03-10T03:39:30.587Z,2.17
2023-03-10T03:42:02.511Z,3.13
2023-03-10T03:44:37.773Z,2.70
2023-03-10T03:47:09.081Z,2.30
2023-03-10T03:49:39.002Z,2.30
2023-03-10T03:52:09.165Z,3.00
2023-03-10T03:54:37.956Z,2.03
2023-03-10T03:57:06.585Z,2.60
2023-03-10T03:59:36.408Z,2.90
2023-03-10T04:02:05.305Z,2.23
2023-03-10T04:04:35.535Z,2.40
2023-03-10T04:07:04.988Z,2.43
2023-03-10T04:09:33.772Z,2.40
2023-03-10T04:12:02.502Z,2.23
2023-03-10T04:14:32.038Z,2.10
2023-03-10T04:17:00.691Z,2.70
2023-03-10T04:19:29.305Z,2.20
2023-03-10T04:22:05.991Z,2.53
2023-03-10T04:24:38.527Z,2.80
2023-03-10T04:27:09.399Z,2.67
2023-03-10T04:29:38.452Z,3.20
2023-03-10T04:32:08.421Z,2.00
2023-03-10T04:34:41.585Z,2.87
2023-03-10T04:37:13.122Z,3.00
2023-03-10T04:39:41.702Z,4.07
2023-03-10T04:42:10.620Z,2.47
2023-03-10T04:44:39.263Z,3.13
2023-03-10T04:47:08.780Z,2.70
2023-03-10T04:49:39.371Z,3.27
2023-03-10T04:52:14.329Z,3.57
2023-03-10T04:54:43.307Z,3.20
2023-03-10T04:57:11.928Z,2.40
2023-03-10T04:59:41.778Z,3.03
2023-03-10T05:02:10.739Z,3.73
2023-03-10T05:04:39.598Z,3.47
2023-03-10T05:07:08.300Z,2.93
2023-03-10T05:09:42.578Z,3.23
2023-03-10T05:12:12.147Z,2.60
2023-03-10T05:14:41.979Z,2.87
2023-03-10T05:17:10.751Z,3.30
2023-03-10T05:19:40.289Z,3.50
2023-03-10T05:22:11.538Z,2.90
2023-03-10T05:24:42.888Z,3.03
2023-03-10T05:27:11.538Z,3.50
2023-03-10T05:29:43.746Z,3.97
2023-03-10T05:32:19.062Z,3.70
2023-03-10T05:34:49.279Z,3.47
2023-03-10T05:37:19.319Z,3.93
2023-03-10T05:39:49.749Z,4.17
2023-03-10T05:42:22.367Z,3.90
2023-03-10T05:44:51.457Z,3.40
2023-03-10T05:47:20.106Z,3.53
2023-03-10T05:49:49.496Z,4.03
2023-03-10T05:52:19.179Z,3.33
2023-03-10T05:54:49.860Z,3.97
2023-03-10T05:57:19.525Z,3.60
2023-03-10T05:59:49.817Z,3.33
2023-03-10T06:02:18.871Z,3.50
2023-03-10T06:04:47.533Z,2.80
2023-03-10T06:07:16.115Z,2.83
2023-03-10T06:09:44.974Z,2.90
2023-03-10T06:12:15.014Z,2.20
2023-03-10T06:14:43.887Z,1.87
2023-03-10T06:17:12.524Z,2.00
2023-03-10T06:19:41.934Z,1.83
2023-03-10T06:22:10.579Z,2.13
2023-03-10T06:24:39.060Z,1.83
2023-03-10T06:27:07.759Z,2.37
2023-03-10T06:29:37.872Z,1.70
2023-03-10T06:32:07.422Z,1.77
2023-03-10T06:34:36.045Z,1.57
2023-03-10T06:37:05.186Z,1.80
2023-03-10T06:39:33.715Z,2.00
2023-03-10T06:42:02.723Z,1.70
2023-03-10T06:44:31.511Z,1.80
2023-03-10T06:47:05.042Z,2.10
2023-03-10T06:49:35.062Z,2.30
2023-03-10T06:52:03.900Z,2.10
2023-03-10T06:54:32.589Z,2.87
2023-03-10T06:57:01.119Z,3.00
2023-03-10T06:59:32.794Z,3.00
2023-03-10T07:02:02.715Z,3.10
2023-03-10T07:04:31.651Z,4.37
2023-03-10T07:07:00.585Z,4.93
2023-03-10T07:09:29.166Z,4.67
2023-03-10T07:11:57.742Z,4.83
2023-03-10T07:14:26.308Z,3.70
2023-03-10T07:16:55.003Z,3.67
2023-03-10T07:19:24.975Z,3.10
2023-03-10T07:21:53.707Z,3.47
2023-03-10T07:24:22.554Z,2.80
2023-03-10T07:26:51.504Z,3.27
2023-03-10T07:29:20.027Z,3.33
2023-03-10T07:31:48.574Z,3.40
2023-03-10T07:34:17.206Z,3.33
2023-03-10T07:36:47.187Z,3.37
2023-03-10T07:39:16.302Z,2.93
2023-03-10T07:41:44.965Z,3.70
2023-03-10T07:44:13.459Z,3.33
2023-03-10T07:46:42.100Z,3.57
2023-03-10T07:49:10.767Z,3.70
2023-03-10T07:51:39.475Z,5.67
2023-03-10T07:54:09.609Z,8.00
2023-03-10T07:56:38.173Z,4.10
2023-03-10T07:59:06.725Z,4.10
2023-03-10T08:01:37.669Z,3.40
2023-03-10T08:04:08.328Z,3.53
2023-03-10T08:06:38.018Z,3.50
2023-03-10T08:09:10.076Z,3.53
2023-03-10T08:11:38.890Z,4.33
2023-03-10T08:14:07.807Z,3.80
2023-03-10T08:16:36.727Z,3.10
2023-03-10T08:19:05.393Z,3.53
2023-03-10T08:21:33.990Z,3.30
2023-03-10T08:24:02.512Z,2.93
2023-03-10T08:26:32.458Z,2.90
2023-03-10T08:29:00.970Z,3.60
2023-03-10T08:31:29.667Z,3.10
2023-03-10T08:33:59.381Z,2.90
2023-03-10T08:36:32.061Z,2.90
2023-03-10T08:39:02.138Z,3.10
2023-03-10T08:41:36.331Z,2.77
2023-03-10T08:44:07.665Z,3.27
2023-03-10T08:46:36.368Z,2.93
2023-03-10T08:49:05.156Z,3.27
2023-03-10T08:51:33.675Z,2.67
2023-03-10T08:54:02.590Z,3.33
2023-03-10T08:56:32.674Z,3.13
2023-03-10T08:59:01.341Z,3.00
2023-03-10T09:01:34.635Z,2.27
2023-03-10T09:04:05.855Z,2.70
2023-03-10T09:06:35.657Z,3.23
2023-03-10T09:09:06.020Z,2.20
2023-03-10T09:11:39.229Z,2.53
2023-03-10T09:14:09.906Z,3.57
2023-03-10T09:16:40.721Z,2.80
2023-03-10T09:19:09.598Z,3.80
2023-03-10T09:21:38.541Z,3.03
2023-03-10T09:24:07.694Z,2.60
2023-03-10T09:26:39.081Z,2.70
2023-03-10T09:29:08.107Z,3.30
2023-03-10T09:31:39.369Z,3.10
2023-03-10T09:34:09.247Z,3.37
2023-03-10T09:36:37.779Z,2.50
2023-03-10T09:39:07.023Z,2.47
2023-03-10T09:42:36.537Z,3.07
2023-03-10T09:45:34.997Z,2.70
2023-03-10T09:48:29.159Z,2.90
2023-03-10T09:51:01.127Z,3.30
2023-03-10T09:53:52.340Z,3.00
2023-03-10T09:56:29.752Z,3.47
2023-03-10T09:59:08.146Z,2.70
2023-03-10T10:01:37.665Z,2.93
2023-03-10T10:04:12.959Z,2.70
2023-03-10T10:06:46.593Z,2.37
2023-03-10T10:09:26.193Z,2.07
2023-03-10T10:11:56.020Z,2.80
2023-03-10T10:14:31.498Z,3.43
2023-03-10T10:17:12.382Z,3.30
2023-03-10T10:19:41.254Z,2.73
2023-03-10T10:22:20.877Z,1.57
2023-03-10T10:25:10.596Z,1.00
2023-03-10T10:27:41.792Z,0.97
2023-03-10T10:30:36.194Z,0.90
2023-03-10T10:33:07.721Z,1.00
2023-03-10T10:35:39.579Z,1.10
2023-03-10T10:38:24.159Z,1.10
2023-03-10T10:41:02.246Z,1.20
2023-03-10T10:43:33.597Z,1.13
2023-03-10T10:46:10.600Z,1.17
2023-03-10T10:48:43.017Z,1.10
2023-03-10T10:51:27.263Z,1.17
2023-03-10T10:53:56.830Z,1.07
2023-03-10T10:56:25.662Z,0.80
2023-03-10T10:59:08.142Z,1.00
2023-03-10T11:01:55.231Z,0.90
2023-03-10T11:04:26.621Z,0.90
2023-03-10T11:07:10.439Z,0.83
2023-03-10T11:09:40.610Z,1.07
2023-03-10T11:12:22.025Z,1.00
2023-03-10T11:15:10.744Z,0.90
2023-03-10T11:17:48.521Z,0.70
2023-03-10T11:20:30.902Z,0.90
2023-03-10T11:23:16.611Z,0.70
2023-03-10T11:25:53.862Z,0.63
2023-03-10T11:28:44.805Z,0.70
2023-03-10T11:31:30.809Z,0.90
2023-03-10T11:34:21.069Z,0.80
2023-03-10T11:37:03.239Z,0.90
2023-03-10T11:39:49.091Z,0.87
2023-03-10T11:42:31.003Z,0.90
2023-03-10T11:45:20.889Z,0.77
2023-03-10T11:48:03.171Z,0.80
2023-03-10T11:50:44.506Z,0.80
2023-03-10T11:53:20.387Z,0.80
2023-03-10T11:55:50.535Z,1.03
2023-03-10T11:58:29.055Z,1.10
2023-03-10T12:00:57.733Z,0.80
2023-03-10T12:03:43.499Z,0.87
2023-03-10T12:06:20.988Z,0.73
2023-03-10T12:08:57.007Z,1.13
2023-03-10T12:11:28.603Z,1.10
2023-03-10T12:14:01.839Z,0.63
2023-03-10T12:16:35.888Z,0.93
2023-03-10T12:19:07.001Z,0.90
2023-03-10T12:21:36.918Z,1.33
2023-03-10T12:24:06.825Z,1.10
2023-03-10T12:27:05.767Z,1.30
2023-03-10T12:29:41.922Z,0.80
2023-03-10T12:32:47.373Z,0.80
2023-03-10T12:35:50.675Z,0.80
2023-03-10T12:38:51.076Z,1.03
2023-03-10T12:41:46.517Z,0.87
2023-03-10T12:44:52.285Z,1.00
2023-03-10T12:47:50.451Z,0.87
2023-03-10T12:50:45.743Z,0.97
2023-03-10T12:53:32.963Z,1.07
2023-03-10T12:56:23.510Z,0.80
2023-03-10T12:58:59.579Z,1.00
2023-03-10T13:01:40.616Z,0.97
2023-03-10T13:04:20.665Z,0.93
2023-03-10T13:06:50.863Z,1.00
2023-03-10T13:09:30.188Z,0.90
2023-03-10T13:12:06.694Z,1.00
2023-03-10T13:14:39.665Z,0.97
2023-03-10T13:17:21.370Z,0.90
2023-03-10T13:20:01.217Z,1.20
2023-03-10T13:22:29.913Z,1.20
2023-03-10T13:25:01.770Z,1.30
2023-03-10T13:27:35.322Z,1.10
2023-03-10T13:30:13.660Z,0.90
2023-03-10T13:32:43.187Z,1.10
2023-03-10T13:35:25.710Z,1.00
2023-03-10T13:38:11.299Z,1.10
2023-03-10T13:40:43.905Z,1.00
2023-03-10T13:43:40.341Z,1.10
2023-03-10T13:46:18.843Z,1.00
2023-03-10T13:48:49.799Z,1.27
2023-03-10T13:51:23.509Z,1.20
2023-03-10T13:53:55.896Z,0.93
2023-03-10T13:56:29.587Z,0.83
2023-03-10T13:59:02.509Z,0.93
2023-03-10T14:01:36.967Z,0.80
2023-03-10T14:04:09.592Z,0.80
2023-03-10T14:06:38.998Z,0.80
2023-03-10T14:09:20.401Z,0.90
2023-03-10T14:11:50.924Z,0.80
2023-03-10T14:14:31.643Z,0.77
2023-03-10T14:17:02.489Z,0.70
2023-03-10T14:19:52.297Z,0.90
2023-03-10T14:22:36.932Z,0.70
2023-03-10T14:25:13.772Z,0.70
2023-03-10T14:27:46.615Z,0.80
2023-03-10T14:30:27.101Z,2.07
2023-03-10T14:32:57.876Z,0.90
2023-03-10T14:35:30.003Z,0.80
2023-03-10T14:37:59.127Z,1.03
2023-03-10T14:40:27.909Z,0.90
2023-03-10T14:43:02.913Z,1.00
2023-03-10T14:45:36.454Z,0.70
2023-03-10T14:48:13.703Z,0.80
2023-03-10T14:50:42.414Z,0.80
2023-03-10T14:53:12.467Z,0.80
2023-03-10T14:55:41.879Z,0.80
2023-03-10T14:58:17.899Z,1.10
2023-03-10T15:00:48.241Z,0.80
2023-03-10T15:03:17.374Z,0.70
2023-03-10T15:05:49.017Z,0.70
2023-03-10T15:08:18.847Z,0.80
2023-03-10T15:10:51.029Z,0.90
2023-03-10T15:13:23.727Z,0.80
2023-03-10T15:15:54.183Z,0.80
2023-03-10T15:18:27.028Z,0.90
2023-03-10T15:20:58.996Z,0.80
2023-03-10T15:23:29.336Z,0.90
2023-03-10T15:25:59.341Z,0.80
2023-03-10T15:28:27.950Z,1.23
2023-03-10T15:30:58.162Z,0.80
2023-03-10T15:33:27.377Z,1.20
2023-03-10T15:35:56.115Z,0.80
2023-03-10T15:38:25.074Z,0.90
2023-03-10T15:40:53.920Z,1.00
2023-03-10T15:43:22.637Z,1.20
2023-03-10T15:45:51.518Z,1.13
2023-03-10T15:48:21.716Z,1.37
2023-03-10T15:50:50.400Z,1.00
2023-03-10T15:53:18.954Z,0.83
2023-03-10T15:55:48.418Z,0.90
2023-03-10T15:58:17.100Z,0.80
2023-03-10T16:00:46.122Z,1.37
2023-03-10T16:03:18.241Z,0.90
2023-03-10T16:05:49.895Z,1.03
2023-03-10T16:08:19.252Z,0.77
2023-03-10T16:10:54.940Z,1.20
2023-03-10T16:13:25.194Z,0.90
2023-03-10T16:15:54.125Z,1.30
2023-03-10T16:18:23.019Z,1.20
2023-03-10T16:20:58.843Z,1.50
2023-03-10T16:23:28.550Z,2.50
2023-03-10T16:26:10.505Z,1.90
2023-03-10T16:28:42.541Z,1.30
2023-03-10T16:31:13.147Z,1.10
2023-03-10T16:33:42.120Z,1.10
2023-03-10T16:36:16.867Z,1.07
2023-03-10T16:38:45.909Z,1.30
2023-03-10T16:41:14.930Z,0.90
2023-03-10T16:43:44.394Z,1.00
2023-03-10T16:46:15.647Z,1.00
2023-03-10T16:48:46.901Z,1.10
2023-03-10T16:51:25.990Z,1.10
2023-03-10T16:53:56.922Z,1.27
2023-03-10T16:56:26.616Z,1.00
2023-03-10T16:58:56.227Z,1.10
2023-03-10T17:01:25.979Z,1.00
2023-03-10T17:03:55.586Z,1.40
2023-03-10T17:06:28.732Z,1.30
2023-03-10T17:08:58.176Z,1.00
2023-03-10T17:11:30.434Z,1.13
2023-03-10T17:14:02.402Z,1.10
2023-03-10T17:16:33.159Z,0.90
2023-03-10T17:19:05.594Z,1.70
2023-03-10T17:21:40.668Z,1.10
2023-03-10T17:24:11.740Z,1.63
2023-03-10T17:26:40.930Z,1.60
2023-03-10T17:29:10.744Z,1.20
2023-03-10T17:31:40.550Z,1.20
2023-03-10T17:34:14.323Z,1.20
2023-03-10T17:36:45.094Z,1.63
2023-03-10T17:39:19.962Z,1.17
2023-03-10T17:41:49.645Z,1.10
2023-03-10T17:44:18.635Z,1.30
2023-03-10T17:46:47.684Z,1.10
2023-03-10T17:49:18.114Z,1.17
2023-03-10T17:51:48.375Z,1.07
2023-03-10T17:54:21.098Z,1.10
2023-03-10T17:56:50.855Z,1.00
2023-03-10T17:59:19.841Z,1.30
2023-03-10T18:01:49.577Z,1.60
2023-03-10T18:04:18.623Z,1.00
2023-03-10T18:06:48.613Z,1.00
2023-03-10T18:09:17.357Z,1.03
2023-03-10T18:11:46.026Z,1.10
2023-03-10T18:14:14.556Z,0.90
2023-03-10T18:16:43.166Z,1.00
2023-03-10T18:19:12.202Z,1.43
2023-03-10T18:21:41.148Z,1.40
2023-03-10T18:24:12.021Z,1.03
2023-03-10T18:26:43.295Z,1.43
2023-03-10T18:29:13.169Z,1.40
2023-03-10T18:31:42.448Z,1.40
2023-03-10T18:34:12.900Z,1.30
2023-03-10T18:36:41.615Z,1.40
2023-03-10T18:39:12.484Z,0.93
2023-03-10T18:41:41.268Z,1.40
2023-03-10T18:44:09.839Z,2.00
2023-03-10T18:46:38.520Z,1.10
2023-03-10T18:49:07.350Z,1.13
2023-03-10T18:51:35.996Z,1.90
2023-03-10T18:54:06.787Z,1.57
2023-03-10T18:56:37.044Z,2.13
2023-03-10T18:59:05.658Z,3.03
2023-03-10T19:01:34.435Z,1.90
2023-03-10T19:04:03.409Z,2.10
2023-03-10T19:06:33.802Z,1.60
2023-03-10T19:09:03.492Z,2.63
2023-03-10T19:11:37.519Z,1.30
2023-03-10T19:14:07.822Z,1.37
2023-03-10T19:16:36.644Z,1.40
2023-03-10T19:19:05.474Z,1.30
2023-03-10T19:21:36.213Z,1.53
2023-03-10T19:24:06.086Z,1.10
2023-03-10T19:26:36.089Z,0.90
2023-03-10T19:29:05.159Z,1.47
2023-03-10T19:31:34.224Z,1.40
2023-03-10T19:34:03.295Z,1.30
2023-03-10T19:36:31.791Z,1.80
2023-03-10T19:39:00.426Z,1.80
2023-03-10T19:41:29.308Z,1.23
2023-03-10T19:43:59.685Z,1.43
2023-03-10T19:46:28.640Z,1.83
2023-03-10T19:48:57.318Z,1.73
2023-03-10T19:51:28.549Z,1.80
2023-03-10T19:53:59.082Z,1.73
2023-03-10T19:56:27.856Z,1.80
2023-03-10T19:58:58.353Z,1.60
2023-03-10T20:01:29.253Z,1.57
2023-03-10T20:04:00.874Z,1.63
2023-03-10T20:06:30.588Z,1.60
2023-03-10T20:08:59.372Z,1.50
2023-03-10T20:11:28.002Z,1.70
2023-03-10T20:13:58.174Z,1.67
2023-03-10T20:16:27.874Z,2.00
2023-03-10T20:18:56.852Z,1.47
2023-03-10T20:21:25.890Z,1.40
2023-03-10T20:23:56.305Z,1.40
2023-03-10T20:26:25.315Z,1.50
2023-03-10T20:28:54.261Z,1.30
2023-03-10T20:31:26.135Z,1.50
2023-03-10T20:33:55.204Z,1.30
2023-03-10T20:36:24.037Z,1.43
2023-03-10T20:38:52.661Z,1.43
2023-03-10T20:41:22.204Z,1.73
2023-03-10T20:43:53.409Z,1.33
2023-03-10T20:46:24.804Z,1.60
2023-03-10T20:48:53.499Z,1.30
2023-03-10T20:51:22.676Z,1.30
2023-03-10T20:53:52.449Z,1.80
2023-03-10T20:56:21.023Z,1.30
2023-03-10T20:58:49.740Z,1.90
2023-03-10T21:01:22.106Z,1.50
2023-03-10T21:03:54.605Z,1.73
2023-03-10T21:06:24.259Z,1.77
2023-03-10T21:08:53.693Z,1.60
2023-03-10T21:11:22.674Z,1.53
2023-03-10T21:13:51.845Z,1.80
2023-03-10T21:16:21.033Z,1.37
2023-03-10T21:18:51.064Z,1.40
2023-03-10T21:21:19.834Z,1.87
2023-03-10T21:23:48.405Z,1.60
2023-03-10T21:26:23.800Z,2.20
2023-03-10T21:28:52.348Z,2.37
2023-03-10T21:31:21.022Z,1.80
2023-03-10T21:33:51.225Z,1.40
2023-03-10T21:36:23.142Z,1.80
2023-03-10T21:38:52.757Z,1.60
2023-03-10T21:41:25.960Z,1.57
2023-03-10T21:43:55.499Z,1.97
2023-03-10T21:46:25.787Z,2.10
2023-03-10T21:48:55.877Z,2.00
2023-03-10T21:51:26.553Z,1.70
2023-03-10T21:53:56.803Z,1.70
2023-03-10T21:56:28.229Z,1.70
2023-03-10T21:58:57.781Z,1.73
2023-03-10T22:01:27.462Z,1.70
2023-03-10T22:03:57.994Z,1.70
2023-03-10T22:06:26.726Z,1.60
2023-03-10T22:08:55.283Z,1.83
2023-03-10T22:11:23.787Z,1.63
2023-03-10T22:13:54.983Z,1.80
2023-03-10T22:16:25.911Z,1.70
2023-03-10T22:18:56.011Z,1.43
2023-03-10T22:21:24.508Z,1.70
2023-03-10T22:23:53.040Z,1.73
2023-03-10T22:26:21.734Z,1.80
2023-03-10T22:28:50.232Z,1.50
2023-03-10T22:31:20.984Z,1.53
2023-03-10T22:33:49.650Z,1.87
2023-03-10T22:36:19.680Z,2.17
2023-03-10T22:38:48.193Z,1.90
2023-03-10T22:41:16.939Z,1.50
2023-03-10T22:43:45.539Z,1.53
2023-03-10T22:46:17.232Z,1.87
2023-03-10T22:48:45.876Z,1.80
2023-03-10T22:51:17.631Z,2.10
2023-03-10T22:53:48.066Z,1.87
2023-03-10T22:56:16.646Z,1.83
2023-03-10T22:58:45.510Z,1.60
2023-03-10T23:01:14.340Z,1.47
2023-03-10T23:03:42.883Z,1.67
2023-03-10T23:06:13.955Z,1.80
2023-03-10T23:08:43.704Z,1.40
2023-03-10T23:11:16.668Z,1.50
2023-03-10T23:13:45.774Z,1.40
2023-03-10T23:16:14.509Z,1.33
2023-03-10T23:18:43.107Z,1.30
2023-03-10T23:21:11.857Z,1.80
2023-03-10T23:23:43.605Z,1.30
2023-03-10T23:26:13.900Z,1.10
2023-03-10T23:28:42.604Z,1.40
2023-03-10T23:31:15.471Z,1.17
2023-03-10T23:33:45.040Z,1.23
2023-03-10T23:36:13.858Z,1.23
2023-03-10T23:38:42.400Z,1.27
2023-03-10T23:41:10.979Z,1.30
2023-03-10T23:43:41.486Z,1.30
2023-03-10T23:46:10.775Z,1.33
2023-03-10T23:48:39.488Z,1.00
2023-03-10T23:51:15.040Z,0.90
2023-03-10T23:53:44.623Z,1.20
2023-03-10T23:56:13.189Z,1.27
2023-03-10T23:58:43.220Z,1.17
